Terminal Aerodrome Forecast
Issued by NWS

Home | Current Version | Previous Version | Text Only | Print | Product List | Glossary On
Versions: 1 2 3 4 5 6 7 8 9 10 11 12 13 14 15 16 17 18 19 20 21 22 23
000
FTUS44 KMOB 191700
TAFBFM
TAF
KBFM 191721Z 1918/2018 06009KT P6SM BKN090
     FM192300 06008KT 5SM SHRA BR OVC025
      TEMPO 1923/2003 1SM +RA BR OVC015
     FM200300 05008KT 4SM -RA BR OVC015
      TEMPO 2003/2007 1SM +RA BR OVC008
     FM200700 02009KT 4SM BR VCSH OVC008
     FM201500 02010KT 4SM BR VCSH OVC015=

USA.gov is the U.S. government's official web portal to all federal, state and local government web resources and services.